Time;durP1;ratioP1;P1;durP2;ratioP2;P2;SDS_P1;SDS_P2;PMS_P1;PMS_P2;Temp;Humidity;BMP_temperature;BMP_pressure;BME280_temperature;BME280_humidity;BME280_pressure;Samples;Min_cycle;Max_cycle;Signal;HPM_P1;HPM_P2
2024/04/22 00:01:23;;;;;;;3.30;1.60;;;;;;;13.60;60.54;98249.00;6535672;21;19999;-77
2024/04/22 00:03:49;;;;;;;2.08;1.40;;;;;;;13.55;60.28;98246.81;6579469;21;20292;-77
2024/04/22 00:06:14;;;;;;;2.00;1.20;;;;;;;13.57;60.46;98253.56;6483477;22;19993;-77
2024/04/22 00:08:40;;;;;;;2.90;1.50;;;;;;;13.53;59.90;98254.84;6489872;21;20076;-77
2024/04/22 00:11:05;;;;;;;1.88;1.10;;;;;;;13.51;60.10;98258.59;6581795;21;20293;-77
2024/04/22 00:13:33;;;;;;;3.65;1.00;;;;;;;13.50;60.25;98256.94;6536905;21;20047;-77
2024/04/22 00:15:59;;;;;;;1.75;1.08;;;;;;;13.49;60.26;98253.50;6581819;21;19992;-77
2024/04/22 00:18:24;;;;;;;2.70;1.35;;;;;;;13.46;60.16;98261.66;6535635;21;20411;-77
2024/04/22 00:20:50;;;;;;;2.15;0.90;;;;;;;13.42;60.29;98259.47;6534699;21;20098;-76
2024/04/22 00:23:15;;;;;;;1.27;0.80;;;;;;;13.39;60.30;98268.44;6490659;21;20058;-76
2024/04/22 00:25:41;;;;;;;1.90;1.00;;;;;;;13.39;60.08;98273.69;6579723;21;20389;-76
2024/04/22 00:28:07;;;;;;;1.00;0.60;;;;;;;13.38;60.01;98288.59;6535570;21;20008;-77
2024/04/22 00:30:32;;;;;;;1.38;0.80;;;;;;;13.39;60.08;98292.03;6490880;21;19992;-76
2024/04/22 00:32:58;;;;;;;1.02;0.60;;;;;;;13.34;60.13;98291.66;6535886;21;20004;-76
2024/04/22 00:35:23;;;;;;;2.17;0.80;;;;;;;13.33;60.02;98293.47;6535484;21;19988;-76
2024/04/22 00:37:48;;;;;;;1.30;0.73;;;;;;;13.35;60.09;98295.94;6535209;21;20003;-76
2024/04/22 00:40:14;;;;;;;0.98;0.63;;;;;;;13.32;60.22;98293.56;6535489;21;19988;-76
2024/04/22 00:42:43;;;;;;;1.30;0.80;;;;;;;13.31;60.05;98305.84;6488541;21;20419;-76
2024/04/22 00:45:09;;;;;;;1.20;0.60;;;;;;;13.26;59.75;98299.41;6580284;21;19999;-76
2024/04/22 00:47:35;;;;;;;1.45;0.68;;;;;;;13.28;59.85;98321.03;6534781;21;19996;-76
2024/04/22 00:50:01;;;;;;;1.13;0.75;;;;;;;13.28;60.08;98318.41;6579061;21;20058;-76
2024/04/22 00:52:26;;;;;;;1.13;0.68;;;;;;;13.26;59.83;98333.47;6580471;21;19999;-76
2024/04/22 00:54:53;;;;;;;0.98;0.50;;;;;;;13.21;60.14;98324.22;6535636;21;19996;-76
2024/04/22 00:57:18;;;;;;;1.00;0.60;;;;;;;13.24;59.87;98330.19;6534251;21;20529;-76
2024/04/22 00:59:44;;;;;;;2.38;0.77;;;;;;;13.20;59.91;98325.22;6491804;21;19992;-76
2024/04/22 01:02:09;;;;;;;1.38;0.70;;;;;;;13.21;59.72;98328.66;6535127;21;20452;-76
2024/04/22 01:04:35;;;;;;;1.45;0.70;;;;;;;13.19;59.57;98333.22;6581020;21;19992;-81
2024/04/22 01:07:00;;;;;;;1.90;1.20;;;;;;;13.17;59.71;98332.53;6490960;21;20358;-76
2024/04/22 01:09:26;;;;;;;2.03;0.98;;;;;;;13.13;59.75;98339.84;6534984;21;20066;-76
2024/04/22 01:11:51;;;;;;;2.22;1.08;;;;;;;13.13;59.99;98336.41;6580575;21;19992;-78
2024/04/22 01:14:17;;;;;;;1.60;0.95;;;;;;;13.11;59.66;98341.81;6534934;21;20003;-76
2024/04/22 01:16:52;;;;;;;2.08;1.00;;;;;;;13.06;59.82;98325.66;6580506;21;19995;-77
2024/04/22 01:19:17;;;;;;;1.73;0.95;;;;;;;13.03;59.84;98333.84;6532067;21;19988;-76
2024/04/22 01:21:43;;;;;;;1.67;1.00;;;;;;;13.02;59.61;98342.66;6532280;21;20124;-76
2024/04/22 01:24:08;;;;;;;1.98;1.10;;;;;;;13.05;59.68;98349.41;6492103;21;20001;-76
2024/04/22 01:26:34;;;;;;;2.28;1.00;;;;;;;13.01;59.70;98356.72;6489636;21;19988;-76
2024/04/22 01:28:59;;;;;;;1.77;1.00;;;;;;;12.96;59.65;98353.69;6533529;21;20001;-76
2024/04/22 01:31:24;;;;;;;1.63;0.90;;;;;;;12.97;59.67;98365.84;6534457;21;20280;-76
2024/04/22 01:33:50;;;;;;;4.80;1.17;;;;;;;12.95;59.56;98370.38;6534882;21;20003;-76
2024/04/22 01:36:15;;;;;;;1.77;1.05;;;;;;;12.92;59.56;98378.50;6535374;21;20003;-76
2024/04/22 01:38:41;;;;;;;1.45;0.90;;;;;;;12.91;59.57;98380.31;6533443;21;20384;-76
2024/04/22 01:41:06;;;;;;;1.20;0.80;;;;;;;12.84;59.58;98382.69;6533708;21;19992;-76
2024/04/22 01:43:32;;;;;;;1.98;0.93;;;;;;;12.87;59.36;98388.59;6534663;21;19993;-76
2024/04/22 01:45:57;;;;;;;1.45;0.90;;;;;;;12.84;59.61;98389.72;6578869;21;20401;-76
2024/04/22 01:48:23;;;;;;;1.13;0.65;;;;;;;12.84;59.46;98393.16;6534735;21;19999;-76
2024/04/22 01:50:48;;;;;;;2.97;0.80;;;;;;;12.83;59.73;98404.59;6490737;21;19992;-77
2024/04/22 01:53:14;;;;;;;1.48;0.90;;;;;;;12.80;59.67;98404.84;6534659;21;20372;-76
2024/04/22 01:55:39;;;;;;;1.55;0.90;;;;;;;12.82;59.52;98409.97;6535045;21;19989;-78
2024/04/22 01:58:04;;;;;;;1.52;0.90;;;;;;;12.80;59.37;98412.72;6578698;21;20289;-76
2024/04/22 02:00:30;;;;;;;1.58;0.95;;;;;;;12.80;59.79;98414.53;6534584;21;19992;-76
2024/04/22 02:02:55;;;;;;;1.88;0.80;;;;;;;12.79;59.90;98412.84;6535288;21;19988;-77
2024/04/22 02:05:21;;;;;;;1.55;0.98;;;;;;;12.75;59.55;98412.31;6581187;21;20373;-77
2024/04/22 02:07:46;;;;;;;1.40;0.80;;;;;;;12.73;59.84;98414.25;6580684;21;20011;-76
2024/04/22 02:10:12;;;;;;;3.38;0.80;;;;;;;12.77;59.87;98420.84;6581025;21;20000;-76
2024/04/22 02:12:37;;;;;;;1.60;0.70;;;;;;;12.77;59.45;98430.50;6582352;21;19992;-77
2024/04/22 02:15:03;;;;;;;1.13;0.73;;;;;;;12.70;59.66;98413.69;6582093;21;19993;-76
2024/04/22 02:17:29;;;;;;;1.38;0.77;;;;;;;12.74;59.47;98431.59;6537103;21;19988;-76
2024/04/22 02:19:54;;;;;;;1.38;0.80;;;;;;;12.70;59.72;98419.78;6535980;21;19999;-76
2024/04/22 02:22:20;;;;;;;0.90;0.57;;;;;;;12.72;59.37;98432.72;6535998;21;20016;-76
2024/04/22 02:24:45;;;;;;;0.93;0.60;;;;;;;12.70;59.43;98432.88;6583249;21;19995;-76
2024/04/22 02:27:10;;;;;;;1.75;0.80;;;;;;;12.67;59.36;98433.13;6583049;21;19988;-76
2024/04/22 02:29:36;;;;;;;1.13;0.50;;;;;;;12.64;59.39;98430.78;6582645;21;20307;-76
2024/04/22 02:32:01;;;;;;;0.85;0.50;;;;;;;12.62;59.33;98430.94;6536620;21;19992;-77
2024/04/22 02:34:27;;;;;;;1.58;0.70;;;;;;;12.62;59.48;98441.41;6535218;21;20449;-76
2024/04/22 02:36:52;;;;;;;4.35;0.70;;;;;;;12.62;59.28;98444.03;6582569;21;20019;-76
2024/04/22 02:39:18;;;;;;;1.38;0.60;;;;;;;12.59;59.62;98452.16;6582927;21;20160;-76
2024/04/22 02:41:43;;;;;;;1.33;0.55;;;;;;;12.57;59.30;98454.09;6537191;21;19993;-80
2024/04/22 02:44:09;;;;;;;0.80;0.60;;;;;;;12.55;59.69;98457.78;6536373;21;20365;-80
2024/04/22 02:46:37;;;;;;;1.55;0.77;;;;;;;12.56;59.24;98462.91;6492923;21;19999;-79
2024/04/22 02:49:02;;;;;;;1.67;0.65;;;;;;;12.51;59.37;98457.25;6536990;21;19997;-81
2024/04/22 02:51:27;;;;;;;1.20;0.55;;;;;;;12.50;59.35;98460.81;6536580;21;19996;-81
2024/04/22 02:53:53;;;;;;;1.73;0.70;;;;;;;12.48;59.33;98468.00;6536577;21;19996;-81
2024/04/22 02:56:21;;;;;;;1.58;0.65;;;;;;;12.52;59.15;98471.97;6536811;21;20351;-82
2024/04/22 02:58:47;;;;;;;0.98;0.60;;;;;;;12.51;59.09;98477.34;6536507;21;20003;-81
2024/04/22 03:01:12;;;;;;;1.67;0.60;;;;;;;12.49;59.04;98472.25;6493764;21;19992;-80
2024/04/22 03:03:38;;;;;;;2.00;0.68;;;;;;;12.45;59.20;98478.72;6536902;21;19992;-81
2024/04/22 03:06:03;;;;;;;1.58;0.57;;;;;;;12.47;59.24;98482.03;6536650;21;20058;-81
2024/04/22 03:08:29;;;;;;;1.10;0.70;;;;;;;12.46;59.21;98482.97;6581803;21;19993;-81
2024/04/22 03:10:58;;;;;;;1.38;0.52;;;;;;;12.42;59.38;98487.66;6581950;21;19997;-78
2024/04/22 03:13:24;;;;;;;1.42;0.63;;;;;;;12.46;59.02;98489.06;6535106;21;20066;-79
2024/04/22 03:15:49;;;;;;;1.50;0.52;;;;;;;12.45;59.15;98502.28;6536609;21;20001;-79
2024/04/22 03:18:18;;;;;;;1.88;0.70;;;;;;;12.41;59.22;98493.03;6537649;21;20066;-79
2024/04/22 03:20:44;;;;;;;1.25;0.70;;;;;;;12.42;58.91;98492.91;6586756;21;19988;-80
2024/04/22 03:23:09;;;;;;;1.10;0.60;;;;;;;12.39;59.15;98497.59;6493907;21;20000;-80
2024/04/22 03:25:35;;;;;;;1.50;0.77;;;;;;;12.42;58.93;98516.47;6497938;21;19988;-78
2024/04/22 03:28:00;;;;;;;1.33;0.80;;;;;;;12.44;58.99;98517.16;6536420;21;20008;-75
2024/04/22 03:30:26;;;;;;;1.35;0.80;;;;;;;12.52;59.13;98520.91;6535236;21;19993;-78
2024/04/22 03:32:51;;;;;;;1.15;0.70;;;;;;;12.99;57.87;98521.91;6581796;21;20355;-75
2024/04/22 03:35:17;;;;;;;2.35;0.80;;;;;;;13.47;56.13;98519.44;6534352;21;19999;-75
2024/04/22 03:37:46;;;;;;;1.20;0.65;;;;;;;14.06;56.63;98525.34;6578359;21;19992;-76
2024/04/22 03:40:17;;;;;;;1.50;0.73;;;;;;;14.53;55.48;98534.91;6535071;21;20003;-76
2024/04/22 03:42:43;;;;;;;3.17;0.80;;;;;;;14.91;54.38;98525.16;6537140;21;19992;-75
2024/04/22 03:45:09;;;;;;;0.93;0.57;;;;;;;15.48;52.80;98530.06;6493292;21;20328;-76
2024/04/22 03:50:21;;;;;;;1.25;0.73;;;;;;;16.73;49.94;98520.81;6544231;21;20399;-78
2024/04/22 03:52:47;;;;;;;5.63;0.90;;;;;;;17.33;48.50;98532.94;6535057;21;19996;-77
2024/04/22 03:55:12;;;;;;;1.27;0.60;;;;;;;17.92;47.14;98528.41;6535497;21;19992;-77
2024/04/22 03:57:38;;;;;;;1.52;0.60;;;;;;;18.56;46.03;98534.41;6536188;21;19996;-79
2024/04/22 04:00:04;;;;;;;2.70;0.80;;;;;;;19.36;45.86;98542.22;6532875;21;20002;-77
2024/04/22 04:02:30;;;;;;;0.77;0.43;;;;;;;19.97;44.36;98539.50;6488140;21;19997;-77
2024/04/22 04:04:55;;;;;;;3.92;0.90;;;;;;;20.97;47.78;98546.06;6532724;21;19992;-78
2024/04/22 04:07:21;;;;;;;8.15;0.95;;;;;;;21.95;44.36;98548.91;6490363;21;20374;-74
2024/04/22 04:09:46;;;;;;;9.93;1.00;;;;;;;22.71;42.20;98544.59;6536171;21;19988;-75
2024/04/22 04:12:12;;;;;;;2.30;1.10;;;;;;;23.15;40.28;98548.59;6534084;21;20452;-76
2024/04/22 04:14:37;;;;;;;7.53;1.60;;;;;;;23.61;38.94;98549.63;6536085;21;20003;-75
2024/04/22 04:17:03;;;;;;;7.13;1.77;;;;;;;24.19;38.16;98563.13;6536824;21;19999;-77
2024/04/22 04:19:29;;;;;;;7.82;1.60;;;;;;;24.82;35.88;98574.19;6489713;21;20070;-77
2024/04/22 04:21:57;;;;;;;6.60;1.40;;;;;;;25.40;34.89;98565.22;6535356;21;20059;-76
2024/04/22 04:24:23;;;;;;;7.28;1.40;;;;;;;25.88;34.20;98580.63;6534910;21;19996;-76
2024/04/22 04:26:48;;;;;;;8.43;1.73;;;;;;;26.43;32.94;98576.38;6532749;21;20392;-77
2024/04/22 04:29:14;;;;;;;3.05;1.52;;;;;;;26.92;31.67;98581.78;6480431;22;19997;-77
2024/04/22 04:31:39;;;;;;;4.75;1.65;;;;;;;27.41;31.16;98566.44;6507157;21;20602;-74
2024/04/22 04:34:05;;;;;;;4.30;1.23;;;;;;;27.91;29.98;98578.59;6576159;21;20000;-75
2024/04/22 04:36:30;;;;;;;2.95;1.42;;;;;;;28.46;29.22;98585.44;6529689;21;20405;-74
2024/04/22 04:38:55;;;;;;;3.33;2.10;;;;;;;29.11;28.31;98586.16;6531953;21;20475;-76
2024/04/22 04:41:22;;;;;;;3.53;1.73;;;;;;;29.64;27.70;98587.59;6577213;21;19989;-75
2024/04/22 04:43:50;;;;;;;5.60;2.35;;;;;;;30.26;27.20;98589.31;6581015;21;20397;-75
2024/04/22 04:46:15;;;;;;;2.42;1.33;;;;;;;30.89;26.05;98599.78;6581297;21;19992;-74
2024/04/22 04:48:41;;;;;;;3.95;1.40;;;;;;;31.55;25.38;98590.75;6579970;21;19993;-75
2024/04/22 04:51:06;;;;;;;4.93;1.60;;;;;;;32.01;23.86;98603.75;6578867;21;20282;-76
2024/04/22 04:53:32;;;;;;;6.85;1.90;;;;;;;32.75;23.49;98616.31;6579230;21;20312;-76
2024/04/22 04:55:57;;;;;;;3.30;1.30;;;;;;;33.25;22.73;98613.19;6491929;21;19989;-76
2024/04/22 04:58:28;;;;;;;5.13;1.10;;;;;;;33.73;21.35;98613.75;6536145;21;20003;-75
2024/04/22 05:00:53;;;;;;;2.42;1.10;;;;;;;34.38;21.43;98615.78;6534787;21;19993;-75
2024/04/22 05:03:19;;;;;;;4.43;1.48;;;;;;;34.76;21.55;98621.63;6579214;21;20438;-76
2024/04/22 05:05:44;;;;;;;2.78;1.20;;;;;;;35.18;20.81;98625.72;6579501;21;20366;-76
2024/04/22 05:08:10;;;;;;;4.78;1.10;;;;;;;35.59;19.72;98611.06;6581280;21;19989;-76
2024/04/22 05:10:35;;;;;;;3.17;0.95;;;;;;;35.86;18.99;98630.38;6536199;21;19988;-75
2024/04/22 05:13:00;;;;;;;4.57;1.10;;;;;;;36.08;18.95;98628.28;6533869;21;20344;-76
2024/04/22 05:15:27;;;;;;;3.95;1.33;;;;;;;36.33;19.52;98636.19;6535209;21;20003;-77
2024/04/22 05:17:52;;;;;;;3.33;2.00;;;;;;;36.56;18.86;98637.28;6491547;21;19988;-75
2024/04/22 05:20:18;;;;;;;3.85;2.85;;;;;;;36.84;19.07;98650.28;6535732;21;20399;-76
2024/04/22 05:22:43;;;;;;;3.78;2.72;;;;;;;37.11;18.23;98647.69;6580804;21;19998;-76
2024/04/22 05:25:15;;;;;;;4.95;2.00;;;;;;;37.35;17.37;98646.03;6580987;21;19988;-76
2024/04/22 05:27:40;;;;;;;3.95;1.73;;;;;;;37.51;17.29;98650.09;6494503;21;19996;-76
2024/04/22 05:30:09;;;;;;;1.63;1.02;;;;;;;37.52;17.03;98653.66;6537544;21;19995;-76
2024/04/22 05:32:36;;;;;;;13.07;2.20;;;;;;;37.42;17.74;98660.88;6539082;21;20454;-77
2024/04/22 05:37:46;;;;;;;3.70;1.10;;;;;;;37.46;18.52;98674.69;6544238;21;19928;-77
2024/04/22 05:40:11;;;;;;;4.25;1.02;;;;;;;37.57;18.50;98675.34;6582858;21;19996;-76
2024/04/22 05:42:37;;;;;;;2.45;1.02;;;;;;;37.68;18.44;98684.16;6537214;21;20069;-76
2024/04/22 05:45:03;;;;;;;7.00;1.10;;;;;;;37.82;17.78;98690.50;6535447;21;19989;-75
2024/04/22 05:47:29;;;;;;;4.20;0.90;;;;;;;37.92;17.28;98686.78;6583558;21;20304;-76
2024/04/22 05:49:54;;;;;;;6.30;1.10;;;;;;;37.99;17.64;98688.00;6582724;21;20066;-75
2024/04/22 05:52:21;;;;;;;6.00;1.20;;;;;;;38.04;17.83;98687.13;6536705;21;20000;-75
2024/04/22 05:54:47;;;;;;;;;;;;;;;38.03;17.59;98690.13;6537192;21;20099;-76
2024/04/22 05:57:12;;;;;;;2.20;0.70;;;;;;;38.15;17.84;98691.28;6536502;21;20314;-76
2024/04/22 05:59:38;;;;;;;1.60;0.80;;;;;;;38.28;18.37;98694.34;6537059;21;20039;-74
2024/04/22 06:02:03;;;;;;;4.63;0.73;;;;;;;38.30;17.79;98700.28;6583169;21;20401;-76
2024/04/22 06:04:31;;;;;;;1.95;0.90;;;;;;;38.35;17.54;98692.84;6580695;21;20004;-76
2024/04/22 06:06:56;;;;;;;2.35;1.20;;;;;;;38.37;17.67;98704.25;6580882;21;19988;-77
2024/04/22 06:09:22;;;;;;;1.70;1.00;;;;;;;38.45;17.94;98704.66;6581098;21;20035;-78
2024/04/22 06:11:48;;;;;;;3.25;0.90;;;;;;;38.49;17.98;98719.28;6537389;21;19989;-77
2024/04/22 06:14:14;;;;;;;1.70;0.80;;;;;;;38.52;17.79;98715.97;6494207;21;20051;-78
2024/04/22 06:16:39;;;;;;;1.38;0.70;;;;;;;38.55;17.20;98715.34;6493195;21;20004;-80
2024/04/22 06:19:05;;;;;;;1.40;0.75;;;;;;;38.58;17.35;98713.97;6494213;21;20342;-81
2024/04/22 06:21:30;;;;;;;1.58;0.60;;;;;;;38.55;17.78;98726.25;6493759;21;19988;-78
2024/04/22 06:23:56;;;;;;;1.10;0.55;;;;;;;38.47;17.30;98719.59;6582923;21;19988;-77
2024/04/22 06:26:23;;;;;;;1.13;0.70;;;;;;;38.41;17.78;98731.69;6537240;21;20024;-77
2024/04/22 06:28:49;;;;;;;4.03;0.90;;;;;;;38.33;17.93;98725.06;6537964;21;20027;-77
2024/04/22 06:31:15;;;;;;;1.17;0.70;;;;;;;38.30;18.33;98725.66;6537257;21;19997;-76
2024/04/22 06:33:42;;;;;;;0.85;0.52;;;;;;;38.30;18.87;98731.09;6494524;21;20385;-77
2024/04/22 06:36:08;;;;;;;;;;;;;;;38.09;17.78;98741.50;6495136;21;20411;-75
2024/04/22 06:38:34;;;;;;;1.00;0.50;;;;;;;38.12;17.71;98745.56;6582393;21;19921;-75
2024/04/22 06:40:59;;;;;;;1.73;0.40;;;;;;;38.00;18.55;98741.41;6582400;21;20003;-75
2024/04/22 06:43:25;;;;;;;2.38;0.60;;;;;;;37.96;17.67;98750.47;6579800;21;19988;-74
2024/04/22 06:45:50;;;;;;;0.88;0.40;;;;;;;37.89;18.17;98744.59;6536717;21;20404;-79
2024/04/22 06:48:16;;;;;;;0.60;0.38;;;;;;;37.82;18.44;98742.25;6493823;21;19992;-76
2024/04/22 06:50:45;;;;;;;0.70;0.40;;;;;;;37.78;18.91;98749.38;6536198;21;19997;-77
2024/04/22 06:53:11;;;;;;;0.40;0.22;;;;;;;37.73;18.93;98754.91;6492828;21;20400;-77
2024/04/22 06:55:37;;;;;;;1.00;0.40;;;;;;;37.70;18.97;98758.22;6493512;21;19992;-77
2024/04/22 06:58:05;;;;;;;1.05;0.40;;;;;;;37.66;18.58;98756.06;6492091;21;20070;-77
2024/04/22 07:00:30;;;;;;;0.70;0.38;;;;;;;37.62;19.13;98752.34;6493457;21;20084;-77
2024/04/22 07:02:56;;;;;;;0.80;0.40;;;;;;;37.59;19.38;98755.66;6580274;21;20000;-77
2024/04/22 07:05:22;;;;;;;2.35;0.40;;;;;;;37.61;19.73;98766.25;6493297;21;20003;-75
2024/04/22 07:07:47;;;;;;;1.08;0.30;;;;;;;37.63;19.20;98766.75;6536964;21;20003;-78
2024/04/22 07:10:13;;;;;;;1.80;0.50;;;;;;;37.67;19.42;98773.22;6493814;21;19996;-77
2024/04/22 07:12:41;;;;;;;1.05;0.47;;;;;;;37.68;19.15;98776.75;6536667;21;19988;-76
2024/04/22 07:15:07;;;;;;;2.08;0.38;;;;;;;37.73;19.66;98776.69;6492184;21;20070;-81
2024/04/22 07:17:32;;;;;;;0.40;0.30;;;;;;;37.79;19.80;98776.31;6493325;21;20000;-77
2024/04/22 07:19:58;;;;;;;1.95;0.40;;;;;;;37.79;19.79;98770.06;6536721;21;20475;-76
2024/04/22 07:22:28;;;;;;;1.58;0.30;;;;;;;37.86;19.53;98778.69;6492936;21;20076;-75
2024/04/22 07:24:54;;;;;;;2.20;0.40;;;;;;;37.86;19.39;98786.03;6537516;21;20000;-76
2024/04/22 07:27:21;;;;;;;0.50;0.30;;;;;;;37.88;19.38;98792.81;6528029;22;19989;-78
2024/04/22 07:29:46;;;;;;;2.33;0.40;;;;;;;37.81;18.73;98795.91;6491771;21;20067;-77
2024/04/22 07:32:12;;;;;;;0.80;0.30;;;;;;;37.77;18.35;98799.53;6536798;21;20340;-79
2024/04/22 07:34:38;;;;;;;1.10;0.40;;;;;;;37.69;17.95;98800.19;6582283;21;20292;-78
2024/04/22 07:37:22;;;;;;;0.52;0.30;;;;;;;37.48;18.76;98795.03;6580140;21;19988;-76
2024/04/22 07:39:48;;;;;;;0.73;0.32;;;;;;;37.39;18.44;98800.28;6536416;21;19998;-77
2024/04/22 07:42:13;;;;;;;1.27;0.32;;;;;;;37.23;18.67;98790.72;6536383;21;19993;-78
2024/04/22 07:44:39;;;;;;;2.28;0.47;;;;;;;37.12;18.74;98803.59;6536670;21;19992;-77
2024/04/22 07:47:04;;;;;;;0.63;0.20;;;;;;;37.00;19.07;98804.00;6492783;21;20403;-78
2024/04/22 07:49:30;;;;;;;0.98;0.30;;;;;;;36.91;19.65;98809.28;6493436;21;20288;-77
2024/04/22 07:51:55;;;;;;;0.55;0.30;;;;;;;36.53;19.93;98811.00;6536984;21;20405;-76
2024/04/22 07:54:21;;;;;;;0.68;0.30;;;;;;;36.53;19.34;98805.56;6535996;21;19992;-77
2024/04/22 07:56:47;;;;;;;1.33;0.30;;;;;;;36.51;19.37;98810.50;6534768;21;19996;-76
2024/04/22 07:59:13;;;;;;;0.85;0.30;;;;;;;36.43;18.96;98820.06;6535731;21;19992;-77
2024/04/22 08:01:39;;;;;;;1.95;0.25;;;;;;;36.42;19.25;98821.19;6536512;21;20002;-76
2024/04/22 08:04:05;;;;;;;0.38;0.20;;;;;;;36.48;19.00;98830.09;6535747;21;19988;-77
2024/04/22 08:06:38;;;;;;;0.22;0.13;;;;;;;36.38;19.28;98820.91;6535455;21;19988;-77
2024/04/22 08:09:07;;;;;;;0.60;0.30;;;;;;;36.44;19.53;98837.22;6493263;21;19993;-77
2024/04/22 08:11:33;;;;;;;0.70;0.30;;;;;;;36.36;19.32;98836.72;6579208;21;19992;-77
2024/04/22 08:13:59;;;;;;;0.40;0.30;;;;;;;36.43;18.96;98822.78;6536161;21;20038;-77
2024/04/22 08:16:27;;;;;;;1.02;0.30;;;;;;;36.50;18.95;98817.84;6535707;21;20258;-77
2024/04/22 08:18:52;;;;;;;2.53;0.30;;;;;;;36.50;19.17;98825.16;6536679;21;19996;-77
2024/04/22 08:21:18;;;;;;;0.40;0.20;;;;;;;36.47;19.16;98823.03;6492828;21;20290;-77
2024/04/22 08:23:43;;;;;;;0.90;0.30;;;;;;;36.45;20.08;98826.03;6491557;21;19999;-77
2024/04/22 08:26:09;;;;;;;0.50;0.20;;;;;;;36.46;19.62;98815.97;6536459;21;19992;-76
2024/04/22 08:28:37;;;;;;;0.55;0.20;;;;;;;36.39;19.79;98822.56;6535960;21;20285;-76
2024/04/22 08:31:06;;;;;;;0.30;0.30;;;;;;;36.26;19.94;98814.25;6535555;21;20070;-77
2024/04/22 08:33:32;;;;;;;0.50;0.20;;;;;;;36.14;20.12;98817.31;6536539;21;19989;-77
2024/04/22 08:35:58;;;;;;;0.85;0.28;;;;;;;36.17;19.97;98822.97;6492812;21;19998;-81
2024/04/22 08:38:24;;;;;;;3.05;0.40;;;;;;;36.14;19.76;98828.19;6535476;21;19999;-78
2024/04/22 08:40:49;;;;;;;0.57;0.20;;;;;;;36.02;20.30;98823.09;6535584;21;19999;-77
2024/04/22 08:43:15;;;;;;;0.28;0.28;;;;;;;35.91;20.76;98819.63;6581620;21;20024;-77
2024/04/22 08:45:50;;;;;;;0.70;0.28;;;;;;;35.64;20.47;98826.28;6491741;21;20332;-77
2024/04/22 08:48:15;;;;;;;0.55;0.30;;;;;;;35.51;20.98;98830.41;6495050;21;19996;-76
2024/04/22 08:50:41;;;;;;;0.50;0.10;;;;;;;35.65;20.53;98821.69;6535999;21;20296;-77
2024/04/22 08:53:10;;;;;;;0.35;0.25;;;;;;;35.58;20.27;98821.16;6535785;21;19993;-75
2024/04/22 08:55:38;;;;;;;0.20;0.10;;;;;;;35.51;20.66;98827.72;6492410;21;19996;-76
2024/04/22 08:58:07;;;;;;;0.30;0.20;;;;;;;35.28;20.10;98821.06;6535014;21;20061;-78
2024/04/22 09:00:33;;;;;;;0.88;0.20;;;;;;;35.20;21.28;98820.78;6534535;21;19988;-76
2024/04/22 09:02:59;;;;;;;1.77;0.35;;;;;;;35.15;20.53;98824.31;6534638;21;20007;-78
2024/04/22 09:05:28;;;;;;;0.95;0.30;;;;;;;35.10;20.37;98827.03;6492015;21;19988;-77
2024/04/22 09:07:54;;;;;;;0.40;0.30;;;;;;;35.08;19.89;98821.91;6535606;21;19992;-77
2024/04/22 09:10:19;;;;;;;0.43;0.17;;;;;;;34.90;19.78;98817.91;6535313;21;19996;-78
2024/04/22 09:12:57;;;;;;;0.28;0.20;;;;;;;34.84;20.67;98823.59;6580924;21;20323;-78
2024/04/22 09:15:23;;;;;;;0.80;0.30;;;;;;;34.71;19.70;98824.94;6578559;21;19992;-76
2024/04/22 09:17:52;;;;;;;0.35;0.30;;;;;;;34.49;19.92;98817.94;6534533;21;20003;-78
2024/04/22 09:20:22;;;;;;;0.30;0.20;;;;;;;34.33;20.42;98814.44;6536122;21;19989;-80
2024/04/22 09:22:47;;;;;;;0.30;0.30;;;;;;;34.18;19.98;98819.81;6491590;21;20003;-78
2024/04/22 09:25:17;;;;;;;0.20;0.20;;;;;;;34.07;19.86;98821.69;6578999;21;19992;-79
2024/04/22 09:27:46;;;;;;;0.75;0.40;;;;;;;33.81;20.82;98828.94;6579329;21;19996;-78
2024/04/22 09:30:16;;;;;;;1.27;0.50;;;;;;;33.56;20.83;98825.09;6579116;21;20074;-78
2024/04/22 09:32:48;;;;;;;0.40;0.20;;;;;;;33.43;20.76;98823.69;6492511;21;20004;-77
2024/04/22 09:35:14;;;;;;;0.70;0.20;;;;;;;33.23;20.67;98824.41;6491125;21;19992;-79
2024/04/22 09:37:44;;;;;;;0.45;0.30;;;;;;;33.16;20.95;98829.22;6534475;21;20488;-76
2024/04/22 09:40:10;;;;;;;0.55;0.30;;;;;;;32.91;21.26;98827.19;6578770;21;20018;-76
2024/04/22 09:42:37;;;;;;;0.57;0.40;;;;;;;32.84;21.10;98837.44;6579009;21;19996;-79
2024/04/22 09:45:02;;;;;;;2.00;0.30;;;;;;;32.76;21.05;98830.63;6492692;21;19999;-77
2024/04/22 09:47:28;;;;;;;0.65;0.40;;;;;;;32.61;21.05;98820.50;6492490;21;19992;-76
2024/04/22 09:49:54;;;;;;;0.50;0.40;;;;;;;32.46;21.57;98813.88;6492771;21;20003;-77
2024/04/22 09:52:19;;;;;;;0.50;0.40;;;;;;;32.27;21.52;98818.06;6492078;21;20012;-77
2024/04/22 09:54:45;;;;;;;0.47;0.40;;;;;;;32.15;21.73;98809.31;6492194;21;20287;-78
2024/04/22 09:57:10;;;;;;;0.60;0.40;;;;;;;32.00;21.72;98812.69;6535648;21;19998;-77
2024/04/22 09:59:36;;;;;;;0.85;0.40;;;;;;;31.92;22.08;98813.94;6535265;21;19999;-78
2024/04/22 10:02:02;;;;;;;1.30;0.50;;;;;;;31.81;22.22;98815.72;6536153;21;19988;-78
2024/04/22 10:04:27;;;;;;;1.38;0.55;;;;;;;31.73;22.09;98817.00;6535663;21;19992;-77
2024/04/22 10:06:53;;;;;;;1.23;0.60;;;;;;;31.70;22.32;98820.19;6535719;21;20306;-78
2024/04/22 10:09:19;;;;;;;0.60;0.50;;;;;;;31.66;21.97;98810.16;6535670;21;19992;-80
2024/04/22 10:11:46;;;;;;;0.40;0.40;;;;;;;31.54;22.00;98807.63;6535656;21;19999;-78
2024/04/22 10:14:13;;;;;;;0.90;0.45;;;;;;;31.37;22.93;98803.09;6492526;21;20117;-76
2024/04/22 10:16:39;;;;;;;0.55;0.50;;;;;;;31.23;22.45;98814.50;6581346;21;19992;-77
2024/04/22 10:19:05;;;;;;;0.60;0.50;;;;;;;31.08;22.76;98812.44;6490342;21;20003;-76
2024/04/22 10:21:30;;;;;;;0.77;0.60;;;;;;;30.96;22.75;98816.06;6535627;21;19984;-76
2024/04/22 10:23:55;;;;;;;0.80;0.40;;;;;;;30.87;23.88;98795.94;6537193;21;19989;-77
2024/04/22 10:26:21;;;;;;;0.55;0.40;;;;;;;30.82;23.61;98810.16;6537516;21;19988;-78
2024/04/22 10:28:47;;;;;;;0.68;0.47;;;;;;;30.78;23.71;98806.31;6538065;21;19992;-78
2024/04/22 10:31:19;;;;;;;1.05;0.50;;;;;;;30.64;23.56;98813.13;6537770;21;20279;-78
2024/04/22 10:33:44;;;;;;;0.43;0.40;;;;;;;30.44;23.28;98809.06;6583223;21;20300;-77
2024/04/22 10:36:15;;;;;;;0.88;0.50;;;;;;;30.35;23.71;98812.34;6493468;21;19988;-78
2024/04/22 10:38:41;;;;;;;1.75;0.43;;;;;;;30.07;23.40;98803.31;6582359;21;20021;-77
2024/04/22 10:41:06;;;;;;;1.45;0.60;;;;;;;29.85;23.19;98817.44;6580687;21;20420;-77
2024/04/22 10:43:32;;;;;;;2.15;0.57;;;;;;;29.76;23.35;98811.63;6536861;21;19996;-78
2024/04/22 10:45:57;;;;;;;0.40;0.40;;;;;;;29.61;23.55;98808.63;6494152;21;20363;-78
2024/04/22 10:48:24;;;;;;;2.20;0.40;;;;;;;29.35;23.33;98810.81;6579808;21;19999;-76
2024/04/22 10:50:49;;;;;;;1.40;0.70;;;;;;;29.21;23.52;98814.84;6582959;21;19996;-76
2024/04/22 10:53:15;;;;;;;0.73;0.50;;;;;;;28.93;23.28;98816.34;6537172;21;20065;-76
2024/04/22 10:55:40;;;;;;;1.20;0.50;;;;;;;28.58;23.28;98808.31;6492068;21;20450;-75
2024/04/22 10:58:06;;;;;;;0.80;0.60;;;;;;;28.45;23.99;98801.25;6537330;21;20051;-76
2024/04/22 11:00:32;;;;;;;0.90;0.70;;;;;;;28.21;24.11;98800.41;6536257;21;20002;-79
2024/04/22 11:02:58;;;;;;;2.95;0.70;;;;;;;27.96;24.52;98798.72;6537204;21;20351;-75
2024/04/22 11:05:24;;;;;;;2.00;0.70;;;;;;;27.80;24.75;98814.38;6536640;21;19994;-76
2024/04/22 11:07:50;;;;;;;1.38;0.70;;;;;;;27.61;24.48;98810.06;6492360;21;20066;-79
2024/04/22 11:10:16;;;;;;;0.75;0.60;;;;;;;27.39;24.46;98815.09;6451270;21;20000;-76
2024/04/22 11:12:41;;;;;;;0.93;0.70;;;;;;;27.12;24.49;98801.16;6535949;21;19988;-78
2024/04/22 11:15:07;;;;;;;0.80;0.60;;;;;;;26.98;24.34;98811.19;6536880;21;19999;-76
2024/04/22 11:17:32;;;;;;;2.20;0.60;;;;;;;26.84;24.95;98816.69;6537180;21;19989;-77
2024/04/22 11:20:08;;;;;;;0.70;0.60;;;;;;;26.68;25.36;98807.38;6537105;21;20395;-77
2024/04/22 11:22:35;;;;;;;1.13;0.70;;;;;;;26.60;25.92;98806.78;6493430;21;20021;-76
2024/04/22 11:25:02;;;;;;;1.25;0.75;;;;;;;26.48;25.45;98806.69;6494561;21;19993;-77
2024/04/22 11:27:29;;;;;;;1.17;0.67;;;;;;;26.34;24.84;98805.97;6492721;21;19989;-77
2024/04/22 11:29:54;;;;;;;0.93;0.63;;;;;;;26.20;24.87;98809.78;6536511;21;20000;-77
2024/04/22 11:32:20;;;;;;;1.20;0.60;;;;;;;26.10;24.45;98812.94;6536835;21;20470;-76
2024/04/22 11:34:46;;;;;;;1.30;0.70;;;;;;;25.97;25.03;98803.16;6536762;21;20408;-78